sensor_id;sensor_type;location;lat;lon;timestamp;temperature;humidity
59148;DHT22;44930;52.878;6.168;2023-04-07T00:02:15;7.20;99.90
59148;DHT22;44930;52.878;6.168;2023-04-07T00:07:07;7.30;99.90
59148;DHT22;44930;52.878;6.168;2023-04-07T00:09:33;7.30;99.90
59148;DHT22;44930;52.878;6.168;2023-04-07T00:11:59;7.30;99.90
59148;DHT22;44930;52.878;6.168;2023-04-07T00:14:27;7.40;99.90
59148;DHT22;44930;52.878;6.168;2023-04-07T00:16:53;7.30;99.90
59148;DHT22;44930;52.878;6.168;2023-04-07T00:19:18;7.30;99.90
59148;DHT22;44930;52.878;6.168;2023-04-07T00:21:44;7.40;99.90
59148;DHT22;44930;52.878;6.168;2023-04-07T00:24:10;7.30;99.90
59148;DHT22;44930;52.878;6.168;2023-04-07T00:26:36;7.40;99.90
59148;DHT22;44930;52.878;6.168;2023-04-07T00:29:01;7.40;99.90
59148;DHT22;44930;52.878;6.168;2023-04-07T00:31:27;7.30;99.90
59148;DHT22;44930;52.878;6.168;2023-04-07T00:33:52;7.30;99.90
59148;DHT22;44930;52.878;6.168;2023-04-07T00:36:18;7.30;99.90
59148;DHT22;44930;52.878;6.168;2023-04-07T00:38:44;7.30;99.90
59148;DHT22;44930;52.878;6.168;2023-04-07T00:41:10;7.30;99.90
59148;DHT22;44930;52.878;6.168;2023-04-07T00:43:36;7.40;99.90
59148;DHT22;44930;52.878;6.168;2023-04-07T00:46:01;7.40;99.90
59148;DHT22;44930;52.878;6.168;2023-04-07T00:48:27;7.40;99.90
59148;DHT22;44930;52.878;6.168;2023-04-07T00:50:53;7.40;99.90
59148;DHT22;44930;52.878;6.168;2023-04-07T00:53:19;7.30;99.90
59148;DHT22;44930;52.878;6.168;2023-04-07T00:55:45;7.40;99.90
59148;DHT22;44930;52.878;6.168;2023-04-07T00:58:10;7.40;99.90
59148;DHT22;44930;52.878;6.168;2023-04-07T01:00:48;7.50;99.90
59148;DHT22;44930;52.878;6.168;2023-04-07T01:03:27;7.70;99.90
59148;DHT22;44930;52.878;6.168;2023-04-07T01:05:57;7.30;99.90
59148;DHT22;44930;52.878;6.168;2023-04-07T01:08:31;7.40;99.90
59148;DHT22;44930;52.878;6.168;2023-04-07T01:11:18;7.30;99.90
59148;DHT22;44930;52.878;6.168;2023-04-07T01:13:48;7.30;99.90
59148;DHT22;44930;52.878;6.168;2023-04-07T01:16:26;7.40;99.90
59148;DHT22;44930;52.878;6.168;2023-04-07T01:18:56;7.40;99.90
59148;DHT22;44930;52.878;6.168;2023-04-07T01:21:25;7.40;99.90
59148;DHT22;44930;52.878;6.168;2023-04-07T01:26:34;7.10;99.90
59148;DHT22;44930;52.878;6.168;2023-04-07T01:29:18;7.40;99.90
59148;DHT22;44930;52.878;6.168;2023-04-07T01:31:45;7.40;99.90
59148;DHT22;44930;52.878;6.168;2023-04-07T01:34:13;7.50;99.90
59148;DHT22;44930;52.878;6.168;2023-04-07T01:36:40;7.30;99.90
59148;DHT22;44930;52.878;6.168;2023-04-07T01:41:32;7.40;99.90
59148;DHT22;44930;52.878;6.168;2023-04-07T01:43:59;7.30;99.90
59148;DHT22;44930;52.878;6.168;2023-04-07T01:46:25;7.50;99.90
59148;DHT22;44930;52.878;6.168;2023-04-07T01:48:51;7.50;99.90
59148;DHT22;44930;52.878;6.168;2023-04-07T01:51:19;7.20;99.90
59148;DHT22;44930;52.878;6.168;2023-04-07T01:53:45;7.40;99.90
59148;DHT22;44930;52.878;6.168;2023-04-07T01:56:11;7.50;99.90
59148;DHT22;44930;52.878;6.168;2023-04-07T01:58:36;7.40;99.90
59148;DHT22;44930;52.878;6.168;2023-04-07T02:01:02;7.40;99.90
59148;DHT22;44930;52.878;6.168;2023-04-07T02:06:05;7.40;99.90
59148;DHT22;44930;52.878;6.168;2023-04-07T02:08:35;7.50;99.90
59148;DHT22;44930;52.878;6.168;2023-04-07T02:11:04;7.60;99.90
59148;DHT22;44930;52.878;6.168;2023-04-07T02:13:33;7.50;99.90
59148;DHT22;44930;52.878;6.168;2023-04-07T02:18:27;7.60;99.90
59148;DHT22;44930;52.878;6.168;2023-04-07T02:20:55;7.50;99.90
59148;DHT22;44930;52.878;6.168;2023-04-07T02:23:21;7.50;99.90
59148;DHT22;44930;52.878;6.168;2023-04-07T02:25:46;7.50;99.90
59148;DHT22;44930;52.878;6.168;2023-04-07T02:30:38;7.50;99.90
59148;DHT22;44930;52.878;6.168;2023-04-07T02:33:04;7.50;99.90
59148;DHT22;44930;52.878;6.168;2023-04-07T02:35:29;7.50;99.90
59148;DHT22;44930;52.878;6.168;2023-04-07T02:37:55;7.50;99.90
59148;DHT22;44930;52.878;6.168;2023-04-07T02:40:21;7.60;99.90
59148;DHT22;44930;52.878;6.168;2023-04-07T02:42:46;7.40;99.90
59148;DHT22;44930;52.878;6.168;2023-04-07T02:45:12;7.50;99.90
59148;DHT22;44930;52.878;6.168;2023-04-07T02:50:04;7.50;99.90
59148;DHT22;44930;52.878;6.168;2023-04-07T02:52:30;7.60;99.90
59148;DHT22;44930;52.878;6.168;2023-04-07T02:54:56;7.60;99.90
59148;DHT22;44930;52.878;6.168;2023-04-07T02:57:21;7.60;99.90
59148;DHT22;44930;52.878;6.168;2023-04-07T02:59:47;7.50;99.90
59148;DHT22;44930;52.878;6.168;2023-04-07T03:02:13;7.60;99.90
59148;DHT22;44930;52.878;6.168;2023-04-07T03:04:38;7.60;99.90
59148;DHT22;44930;52.878;6.168;2023-04-07T03:07:04;7.50;99.90
59148;DHT22;44930;52.878;6.168;2023-04-07T03:09:29;7.50;99.90
59148;DHT22;44930;52.878;6.168;2023-04-07T03:11:55;7.50;99.90
59148;DHT22;44930;52.878;6.168;2023-04-07T03:16:46;7.50;99.90
59148;DHT22;44930;52.878;6.168;2023-04-07T03:19:12;7.60;99.90
59148;DHT22;44930;52.878;6.168;2023-04-07T03:21:38;7.50;99.90
59148;DHT22;44930;52.878;6.168;2023-04-07T03:24:05;7.60;99.90
59148;DHT22;44930;52.878;6.168;2023-04-07T03:26:31;7.50;99.90
59148;DHT22;44930;52.878;6.168;2023-04-07T03:28:56;7.50;99.90
59148;DHT22;44930;52.878;6.168;2023-04-07T03:31:22;7.50;99.90
59148;DHT22;44930;52.878;6.168;2023-04-07T03:33:48;7.50;99.90
59148;DHT22;44930;52.878;6.168;2023-04-07T03:36:14;7.50;99.90
59148;DHT22;44930;52.878;6.168;2023-04-07T03:38:39;7.60;99.90
59148;DHT22;44930;52.878;6.168;2023-04-07T03:41:05;7.70;99.90
59148;DHT22;44930;52.878;6.168;2023-04-07T03:43:30;7.60;99.90
59148;DHT22;44930;52.878;6.168;2023-04-07T03:45:56;7.70;99.90
59148;DHT22;44930;52.878;6.168;2023-04-07T03:48:22;7.60;99.90
59148;DHT22;44930;52.878;6.168;2023-04-07T03:50:47;7.70;99.90
59148;DHT22;44930;52.878;6.168;2023-04-07T03:53:13;7.60;99.90
59148;DHT22;44930;52.878;6.168;2023-04-07T03:55:41;7.50;99.90
59148;DHT22;44930;52.878;6.168;2023-04-07T03:58:07;7.50;99.90
59148;DHT22;44930;52.878;6.168;2023-04-07T04:00:33;7.70;99.90
59148;DHT22;44930;52.878;6.168;2023-04-07T04:02:59;7.60;99.90
59148;DHT22;44930;52.878;6.168;2023-04-07T04:05:25;7.60;99.90
59148;DHT22;44930;52.878;6.168;2023-04-07T04:07:50;7.60;99.90
59148;DHT22;44930;52.878;6.168;2023-04-07T04:10:17;7.60;99.90
59148;DHT22;44930;52.878;6.168;2023-04-07T04:12:43;7.60;99.90
59148;DHT22;44930;52.878;6.168;2023-04-07T04:15:09;7.70;99.90
59148;DHT22;44930;52.878;6.168;2023-04-07T04:17:35;7.60;99.90
59148;DHT22;44930;52.878;6.168;2023-04-07T04:20:01;7.70;99.90
59148;DHT22;44930;52.878;6.168;2023-04-07T04:22:26;7.60;99.90
59148;DHT22;44930;52.878;6.168;2023-04-07T04:24:52;7.50;99.90
59148;DHT22;44930;52.878;6.168;2023-04-07T04:29:43;7.50;99.90
59148;DHT22;44930;52.878;6.168;2023-04-07T04:32:10;7.60;99.90
59148;DHT22;44930;52.878;6.168;2023-04-07T04:34:35;7.60;99.90
59148;DHT22;44930;52.878;6.168;2023-04-07T04:37:01;7.60;99.90
59148;DHT22;44930;52.878;6.168;2023-04-07T04:39:26;7.70;99.90
59148;DHT22;44930;52.878;6.168;2023-04-07T04:41:52;7.70;99.90
59148;DHT22;44930;52.878;6.168;2023-04-07T04:44:17;7.70;99.90
59148;DHT22;44930;52.878;6.168;2023-04-07T04:49:09;7.70;99.90
59148;DHT22;44930;52.878;6.168;2023-04-07T04:51:35;7.70;99.90
59148;DHT22;44930;52.878;6.168;2023-04-07T04:54:00;7.60;99.90
59148;DHT22;44930;52.878;6.168;2023-04-07T04:58:54;7.60;99.90
59148;DHT22;44930;52.878;6.168;2023-04-07T05:01:19;7.60;99.90
59148;DHT22;44930;52.878;6.168;2023-04-07T05:06:11;7.70;99.90
59148;DHT22;44930;52.878;6.168;2023-04-07T05:08:36;7.60;99.90
59148;DHT22;44930;52.878;6.168;2023-04-07T05:11:02;7.60;99.90
59148;DHT22;44930;52.878;6.168;2023-04-07T05:13:27;7.70;99.90
59148;DHT22;44930;52.878;6.168;2023-04-07T05:15:55;7.60;99.90
59148;DHT22;44930;52.878;6.168;2023-04-07T05:20:48;7.70;99.90
59148;DHT22;44930;52.878;6.168;2023-04-07T05:23:14;7.70;99.90
59148;DHT22;44930;52.878;6.168;2023-04-07T05:25:40;7.70;99.90
59148;DHT22;44930;52.878;6.168;2023-04-07T05:28:05;7.60;99.90
59148;DHT22;44930;52.878;6.168;2023-04-07T05:30:31;7.70;99.90
59148;DHT22;44930;52.878;6.168;2023-04-07T05:32:57;7.70;99.90
59148;DHT22;44930;52.878;6.168;2023-04-07T05:35:22;7.60;99.90
59148;DHT22;44930;52.878;6.168;2023-04-07T05:37:48;7.70;99.90
59148;DHT22;44930;52.878;6.168;2023-04-07T05:40:14;7.70;99.90
59148;DHT22;44930;52.878;6.168;2023-04-07T05:42:40;7.70;99.90
59148;DHT22;44930;52.878;6.168;2023-04-07T05:45:06;7.80;99.90
59148;DHT22;44930;52.878;6.168;2023-04-07T05:47:32;7.70;99.90
59148;DHT22;44930;52.878;6.168;2023-04-07T05:49:57;7.60;99.90
59148;DHT22;44930;52.878;6.168;2023-04-07T05:52:23;7.70;99.90
59148;DHT22;44930;52.878;6.168;2023-04-07T05:54:48;7.70;99.90
59148;DHT22;44930;52.878;6.168;2023-04-07T05:57:14;7.70;99.90
59148;DHT22;44930;52.878;6.168;2023-04-07T05:59:40;7.70;99.90
59148;DHT22;44930;52.878;6.168;2023-04-07T06:02:05;7.70;99.90
59148;DHT22;44930;52.878;6.168;2023-04-07T06:04:31;7.80;99.90
59148;DHT22;44930;52.878;6.168;2023-04-07T06:07:03;7.70;99.90
59148;DHT22;44930;52.878;6.168;2023-04-07T06:09:28;7.80;99.90
59148;DHT22;44930;52.878;6.168;2023-04-07T06:11:54;7.70;99.90
59148;DHT22;44930;52.878;6.168;2023-04-07T06:14:21;7.70;99.90
59148;DHT22;44930;52.878;6.168;2023-04-07T06:16:46;7.70;99.90
59148;DHT22;44930;52.878;6.168;2023-04-07T06:19:12;7.80;99.90
59148;DHT22;44930;52.878;6.168;2023-04-07T06:21:37;7.80;99.90
59148;DHT22;44930;52.878;6.168;2023-04-07T06:24:04;7.70;99.90
59148;DHT22;44930;52.878;6.168;2023-04-07T06:26:30;7.60;99.90
59148;DHT22;44930;52.878;6.168;2023-04-07T06:28:57;7.70;99.90
59148;DHT22;44930;52.878;6.168;2023-04-07T06:31:23;7.70;99.90
59148;DHT22;44930;52.878;6.168;2023-04-07T06:33:49;7.80;99.90
59148;DHT22;44930;52.878;6.168;2023-04-07T06:36:14;7.80;99.90
59148;DHT22;44930;52.878;6.168;2023-04-07T06:38:40;7.80;99.90
59148;DHT22;44930;52.878;6.168;2023-04-07T06:41:06;7.80;99.90
59148;DHT22;44930;52.878;6.168;2023-04-07T06:43:32;7.70;99.90
59148;DHT22;44930;52.878;6.168;2023-04-07T06:45:58;7.80;99.90
59148;DHT22;44930;52.878;6.168;2023-04-07T06:48:23;7.80;99.90
59148;DHT22;44930;52.878;6.168;2023-04-07T06:50:49;7.90;99.90
59148;DHT22;44930;52.878;6.168;2023-04-07T06:53:15;7.90;99.90
59148;DHT22;44930;52.878;6.168;2023-04-07T06:55:41;7.80;99.90
59148;DHT22;44930;52.878;6.168;2023-04-07T06:58:07;7.70;99.90
59148;DHT22;44930;52.878;6.168;2023-04-07T07:00:32;7.70;99.90
59148;DHT22;44930;52.878;6.168;2023-04-07T07:02:58;7.80;99.90
59148;DHT22;44930;52.878;6.168;2023-04-07T07:05:23;7.90;99.90
59148;DHT22;44930;52.878;6.168;2023-04-07T07:07:49;7.80;99.90
59148;DHT22;44930;52.878;6.168;2023-04-07T07:10:16;7.80;99.90
59148;DHT22;44930;52.878;6.168;2023-04-07T07:12:41;7.80;99.90
59148;DHT22;44930;52.878;6.168;2023-04-07T07:15:07;7.80;99.90
59148;DHT22;44930;52.878;6.168;2023-04-07T07:17:33;7.80;99.90
59148;DHT22;44930;52.878;6.168;2023-04-07T07:19:59;7.90;99.90
59148;DHT22;44930;52.878;6.168;2023-04-07T07:22:25;7.90;99.90
59148;DHT22;44930;52.878;6.168;2023-04-07T07:24:51;7.90;99.90
59148;DHT22;44930;52.878;6.168;2023-04-07T07:27:16;7.90;99.90
59148;DHT22;44930;52.878;6.168;2023-04-07T07:29:42;7.90;99.90
59148;DHT22;44930;52.878;6.168;2023-04-07T07:32:07;7.90;99.90
59148;DHT22;44930;52.878;6.168;2023-04-07T07:34:33;7.90;99.90
59148;DHT22;44930;52.878;6.168;2023-04-07T07:36:58;8.00;99.90
59148;DHT22;44930;52.878;6.168;2023-04-07T07:39:25;8.00;99.90
59148;DHT22;44930;52.878;6.168;2023-04-07T07:41:50;8.00;99.90
59148;DHT22;44930;52.878;6.168;2023-04-07T07:44:16;7.80;99.90
59148;DHT22;44930;52.878;6.168;2023-04-07T07:46:44;8.10;99.90
59148;DHT22;44930;52.878;6.168;2023-04-07T07:49:10;8.10;99.90
59148;DHT22;44930;52.878;6.168;2023-04-07T07:51:36;8.30;99.90
59148;DHT22;44930;52.878;6.168;2023-04-07T07:54:02;8.10;99.90
59148;DHT22;44930;52.878;6.168;2023-04-07T07:56:27;8.30;99.90
59148;DHT22;44930;52.878;6.168;2023-04-07T07:58:53;8.20;99.90
59148;DHT22;44930;52.878;6.168;2023-04-07T08:01:19;8.40;99.90
59148;DHT22;44930;52.878;6.168;2023-04-07T08:06:10;8.60;99.90
59148;DHT22;44930;52.878;6.168;2023-04-07T08:08:37;8.50;99.90
59148;DHT22;44930;52.878;6.168;2023-04-07T08:11:03;8.50;99.90
59148;DHT22;44930;52.878;6.168;2023-04-07T08:13:29;8.70;99.90
59148;DHT22;44930;52.878;6.168;2023-04-07T08:15:54;8.60;99.90
59148;DHT22;44930;52.878;6.168;2023-04-07T08:18:20;8.30;99.90
59148;DHT22;44930;52.878;6.168;2023-04-07T08:23:11;8.40;99.90
59148;DHT22;44930;52.878;6.168;2023-04-07T08:25:37;8.50;99.90
59148;DHT22;44930;52.878;6.168;2023-04-07T08:28:06;8.30;99.90
59148;DHT22;44930;52.878;6.168;2023-04-07T08:30:32;8.50;99.90
59148;DHT22;44930;52.878;6.168;2023-04-07T08:32:57;8.30;99.90
59148;DHT22;44930;52.878;6.168;2023-04-07T08:35:23;8.40;99.90
59148;DHT22;44930;52.878;6.168;2023-04-07T08:37:48;8.40;99.90
59148;DHT22;44930;52.878;6.168;2023-04-07T08:40:14;8.40;99.90
59148;DHT22;44930;52.878;6.168;2023-04-07T08:42:42;8.80;99.90
59148;DHT22;44930;52.878;6.168;2023-04-07T08:45:11;8.40;99.90
59148;DHT22;44930;52.878;6.168;2023-04-07T08:47:39;8.50;99.90
59148;DHT22;44930;52.878;6.168;2023-04-07T08:52:38;8.40;99.90
59148;DHT22;44930;52.878;6.168;2023-04-07T08:55:04;8.60;99.90
59148;DHT22;44930;52.878;6.168;2023-04-07T08:57:33;8.50;99.90
59148;DHT22;44930;52.878;6.168;2023-04-07T09:00:00;8.70;99.90
59148;DHT22;44930;52.878;6.168;2023-04-07T09:02:38;8.60;99.90
59148;DHT22;44930;52.878;6.168;2023-04-07T09:05:06;8.90;99.90
59148;DHT22;44930;52.878;6.168;2023-04-07T09:07:32;8.90;99.90
59148;DHT22;44930;52.878;6.168;2023-04-07T09:09:58;8.90;99.90
59148;DHT22;44930;52.878;6.168;2023-04-07T09:14:52;9.10;99.90
59148;DHT22;44930;52.878;6.168;2023-04-07T09:17:18;9.10;99.90
59148;DHT22;44930;52.878;6.168;2023-04-07T09:19:44;9.00;99.90
59148;DHT22;44930;52.878;6.168;2023-04-07T09:22:09;9.10;99.90
59148;DHT22;44930;52.878;6.168;2023-04-07T09:24:39;9.20;99.90
59148;DHT22;44930;52.878;6.168;2023-04-07T09:29:43;9.10;99.90
59148;DHT22;44930;52.878;6.168;2023-04-07T09:32:09;9.20;99.90
59148;DHT22;44930;52.878;6.168;2023-04-07T09:34:39;9.10;99.90
59148;DHT22;44930;52.878;6.168;2023-04-07T09:37:06;9.30;99.90
59148;DHT22;44930;52.878;6.168;2023-04-07T09:42:13;9.10;99.90
59148;DHT22;44930;52.878;6.168;2023-04-07T09:44:39;9.10;99.90
59148;DHT22;44930;52.878;6.168;2023-04-07T09:47:07;9.10;99.90
59148;DHT22;44930;52.878;6.168;2023-04-07T09:49:51;9.40;99.90
59148;DHT22;44930;52.878;6.168;2023-04-07T09:52:50;9.50;99.90
59148;DHT22;44930;52.878;6.168;2023-04-07T09:55:22;9.30;99.90
59148;DHT22;44930;52.878;6.168;2023-04-07T09:57:50;9.50;99.90
59148;DHT22;44930;52.878;6.168;2023-04-07T10:00:15;10.00;99.90
59148;DHT22;44930;52.878;6.168;2023-04-07T10:02:42;9.70;99.90
59148;DHT22;44930;52.878;6.168;2023-04-07T10:07:35;9.80;99.90
59148;DHT22;44930;52.878;6.168;2023-04-07T10:10:01;9.90;99.90
59148;DHT22;44930;52.878;6.168;2023-04-07T10:12:28;9.80;99.90
59148;DHT22;44930;52.878;6.168;2023-04-07T10:14:55;9.80;99.90
59148;DHT22;44930;52.878;6.168;2023-04-07T10:17:21;10.00;99.90
59148;DHT22;44930;52.878;6.168;2023-04-07T10:19:48;9.90;99.90
59148;DHT22;44930;52.878;6.168;2023-04-07T10:22:15;10.00;99.90
59148;DHT22;44930;52.878;6.168;2023-04-07T10:27:18;9.90;99.90
59148;DHT22;44930;52.878;6.168;2023-04-07T10:29:48;9.80;99.90
59148;DHT22;44930;52.878;6.168;2023-04-07T10:32:14;9.70;99.90
59148;DHT22;44930;52.878;6.168;2023-04-07T10:37:16;9.80;99.90
59148;DHT22;44930;52.878;6.168;2023-04-07T10:39:44;9.90;99.90
59148;DHT22;44930;52.878;6.168;2023-04-07T10:45:04;10.20;99.90
59148;DHT22;44930;52.878;6.168;2023-04-07T10:47:30;10.30;99.90
59148;DHT22;44930;52.878;6.168;2023-04-07T10:52:43;10.60;99.90
59148;DHT22;44930;52.878;6.168;2023-04-07T10:55:36;10.80;99.90
59148;DHT22;44930;52.878;6.168;2023-04-07T11:03:38;10.70;99.90
59148;DHT22;44930;52.878;6.168;2023-04-07T11:06:08;11.10;99.90
59148;DHT22;44930;52.878;6.168;2023-04-07T11:08:36;10.80;99.90
59148;DHT22;44930;52.878;6.168;2023-04-07T11:11:02;11.00;99.90
59148;DHT22;44930;52.878;6.168;2023-04-07T11:16:05;11.00;99.90
59148;DHT22;44930;52.878;6.168;2023-04-07T11:18:32;11.00;99.90
59148;DHT22;44930;52.878;6.168;2023-04-07T11:20:57;11.50;99.90
59148;DHT22;44930;52.878;6.168;2023-04-07T11:23:23;11.00;99.90
59148;DHT22;44930;52.878;6.168;2023-04-07T11:25:59;10.90;99.90
59148;DHT22;44930;52.878;6.168;2023-04-07T11:28:26;11.20;99.90
59148;DHT22;44930;52.878;6.168;2023-04-07T11:30:52;10.80;99.90
59148;DHT22;44930;52.878;6.168;2023-04-07T11:33:24;11.40;99.90
59148;DHT22;44930;52.878;6.168;2023-04-07T11:35:58;11.30;99.90
59148;DHT22;44930;52.878;6.168;2023-04-07T11:38:26;11.20;99.90
59148;DHT22;44930;52.878;6.168;2023-04-07T11:40:53;11.20;99.90
59148;DHT22;44930;52.878;6.168;2023-04-07T11:43:21;11.10;99.90
59148;DHT22;44930;52.878;6.168;2023-04-07T11:46:11;11.20;99.90
59148;DHT22;44930;52.878;6.168;2023-04-07T11:48:38;11.20;99.90
59148;DHT22;44930;52.878;6.168;2023-04-07T11:51:05;11.40;99.90
59148;DHT22;44930;52.878;6.168;2023-04-07T11:53:35;11.20;99.90
59148;DHT22;44930;52.878;6.168;2023-04-07T11:56:06;10.90;99.90
59148;DHT22;44930;52.878;6.168;2023-04-07T11:58:34;11.30;99.90
59148;DHT22;44930;52.878;6.168;2023-04-07T12:01:02;11.20;99.90
59148;DHT22;44930;52.878;6.168;2023-04-07T12:03:34;11.40;99.90
59148;DHT22;44930;52.878;6.168;2023-04-07T12:06:01;11.40;99.90
59148;DHT22;44930;52.878;6.168;2023-04-07T12:08:41;11.50;99.90
59148;DHT22;44930;52.878;6.168;2023-04-07T12:11:07;11.40;99.90
59148;DHT22;44930;52.878;6.168;2023-04-07T12:13:35;11.30;99.90
59148;DHT22;44930;52.878;6.168;2023-04-07T12:16:00;11.20;99.90
59148;DHT22;44930;52.878;6.168;2023-04-07T12:18:27;11.30;99.90
59148;DHT22;44930;52.878;6.168;2023-04-07T12:20:53;11.20;99.90
59148;DHT22;44930;52.878;6.168;2023-04-07T12:23:18;11.10;99.90
59148;DHT22;44930;52.878;6.168;2023-04-07T12:25:44;11.10;99.90
59148;DHT22;44930;52.878;6.168;2023-04-07T12:28:09;11.20;99.90
59148;DHT22;44930;52.878;6.168;2023-04-07T12:30:35;10.90;99.90
59148;DHT22;44930;52.878;6.168;2023-04-07T12:33:01;11.00;99.90
59148;DHT22;44930;52.878;6.168;2023-04-07T12:35:28;11.10;99.90
59148;DHT22;44930;52.878;6.168;2023-04-07T12:37:54;11.10;99.90
59148;DHT22;44930;52.878;6.168;2023-04-07T12:40:21;11.10;99.90
59148;DHT22;44930;52.878;6.168;2023-04-07T12:42:47;11.10;99.90
59148;DHT22;44930;52.878;6.168;2023-04-07T12:45:12;11.00;99.90
59148;DHT22;44930;52.878;6.168;2023-04-07T12:47:38;10.80;99.90
59148;DHT22;44930;52.878;6.168;2023-04-07T12:50:04;11.20;99.90
59148;DHT22;44930;52.878;6.168;2023-04-07T12:52:30;11.20;99.90
59148;DHT22;44930;52.878;6.168;2023-04-07T12:54:56;11.50;99.90
59148;DHT22;44930;52.878;6.168;2023-04-07T12:57:22;11.40;99.90
59148;DHT22;44930;52.878;6.168;2023-04-07T12:59:48;11.10;99.90
59148;DHT22;44930;52.878;6.168;2023-04-07T13:02:14;11.40;99.90
59148;DHT22;44930;52.878;6.168;2023-04-07T13:04:42;11.40;99.90
59148;DHT22;44930;52.878;6.168;2023-04-07T13:07:13;11.70;99.90
59148;DHT22;44930;52.878;6.168;2023-04-07T13:09:39;11.50;99.90
59148;DHT22;44930;52.878;6.168;2023-04-07T13:12:10;11.30;99.90
59148;DHT22;44930;52.878;6.168;2023-04-07T13:14:40;11.30;99.90
59148;DHT22;44930;52.878;6.168;2023-04-07T13:17:07;11.30;99.90
59148;DHT22;44930;52.878;6.168;2023-04-07T13:19:33;11.30;99.90
59148;DHT22;44930;52.878;6.168;2023-04-07T13:21:59;11.30;99.90
59148;DHT22;44930;52.878;6.168;2023-04-07T13:24:25;10.90;99.90
59148;DHT22;44930;52.878;6.168;2023-04-07T13:29:17;11.00;99.90
59148;DHT22;44930;52.878;6.168;2023-04-07T13:31:46;11.20;99.90
59148;DHT22;44930;52.878;6.168;2023-04-07T13:36:39;11.10;99.90
59148;DHT22;44930;52.878;6.168;2023-04-07T13:39:04;11.10;99.90
59148;DHT22;44930;52.878;6.168;2023-04-07T13:41:30;11.30;99.90
59148;DHT22;44930;52.878;6.168;2023-04-07T13:43:56;11.10;99.90
59148;DHT22;44930;52.878;6.168;2023-04-07T13:46:23;11.20;99.90
59148;DHT22;44930;52.878;6.168;2023-04-07T13:48:48;11.30;99.90
59148;DHT22;44930;52.878;6.168;2023-04-07T13:51:15;11.00;99.90
59148;DHT22;44930;52.878;6.168;2023-04-07T13:53:41;11.10;99.90
59148;DHT22;44930;52.878;6.168;2023-04-07T13:56:07;11.30;99.90
59148;DHT22;44930;52.878;6.168;2023-04-07T14:01:00;11.20;99.90
59148;DHT22;44930;52.878;6.168;2023-04-07T14:03:26;11.30;99.90
59148;DHT22;44930;52.878;6.168;2023-04-07T14:05:52;11.20;99.90
59148;DHT22;44930;52.878;6.168;2023-04-07T14:08:19;11.20;99.90
59148;DHT22;44930;52.878;6.168;2023-04-07T14:10:45;11.20;99.90
59148;DHT22;44930;52.878;6.168;2023-04-07T14:13:10;11.10;99.90
59148;DHT22;44930;52.878;6.168;2023-04-07T14:15:36;11.20;99.90
59148;DHT22;44930;52.878;6.168;2023-04-07T14:18:01;10.70;99.90
59148;DHT22;44930;52.878;6.168;2023-04-07T14:20:27;11.20;99.90
59148;DHT22;44930;52.878;6.168;2023-04-07T14:22:53;11.00;99.90
59148;DHT22;44930;52.878;6.168;2023-04-07T14:25:19;11.20;99.90
59148;DHT22;44930;52.878;6.168;2023-04-07T14:27:45;11.30;99.90
59148;DHT22;44930;52.878;6.168;2023-04-07T14:30:10;11.20;99.90
59148;DHT22;44930;52.878;6.168;2023-04-07T14:32:36;11.40;99.90
59148;DHT22;44930;52.878;6.168;2023-04-07T14:35:02;11.30;99.90
59148;DHT22;44930;52.878;6.168;2023-04-07T14:37:28;11.40;99.90
59148;DHT22;44930;52.878;6.168;2023-04-07T14:39:54;11.30;99.90
59148;DHT22;44930;52.878;6.168;2023-04-07T14:42:20;11.30;99.90
59148;DHT22;44930;52.878;6.168;2023-04-07T14:44:45;11.40;99.90
59148;DHT22;44930;52.878;6.168;2023-04-07T14:47:12;10.90;99.90
59148;DHT22;44930;52.878;6.168;2023-04-07T14:49:37;11.20;99.90
59148;DHT22;44930;52.878;6.168;2023-04-07T14:52:03;11.30;99.90
59148;DHT22;44930;52.878;6.168;2023-04-07T14:54:29;11.30;99.90
59148;DHT22;44930;52.878;6.168;2023-04-07T14:56:55;11.30;99.90
59148;DHT22;44930;52.878;6.168;2023-04-07T14:59:20;11.40;99.90
59148;DHT22;44930;52.878;6.168;2023-04-07T15:01:46;11.30;99.90
59148;DHT22;44930;52.878;6.168;2023-04-07T15:04:11;11.30;99.90
59148;DHT22;44930;52.878;6.168;2023-04-07T15:06:40;11.90;99.90
59148;DHT22;44930;52.878;6.168;2023-04-07T15:09:07;11.50;99.90
59148;DHT22;44930;52.878;6.168;2023-04-07T15:11:33;11.40;99.90
59148;DHT22;44930;52.878;6.168;2023-04-07T15:13:58;11.40;99.90
59148;DHT22;44930;52.878;6.168;2023-04-07T15:16:25;11.40;99.90
59148;DHT22;44930;52.878;6.168;2023-04-07T15:18:51;11.40;99.90
59148;DHT22;44930;52.878;6.168;2023-04-07T15:21:17;11.20;99.90
59148;DHT22;44930;52.878;6.168;2023-04-07T15:23:43;11.20;99.90
59148;DHT22;44930;52.878;6.168;2023-04-07T15:26:10;11.50;99.90
59148;DHT22;44930;52.878;6.168;2023-04-07T15:28:36;11.20;99.90
59148;DHT22;44930;52.878;6.168;2023-04-07T15:31:01;11.30;99.90
59148;DHT22;44930;52.878;6.168;2023-04-07T15:33:27;11.50;99.90
59148;DHT22;44930;52.878;6.168;2023-04-07T15:35:53;11.30;99.90
59148;DHT22;44930;52.878;6.168;2023-04-07T15:38:18;11.80;99.90
59148;DHT22;44930;52.878;6.168;2023-04-07T15:40:44;11.40;99.90
59148;DHT22;44930;52.878;6.168;2023-04-07T15:43:10;11.20;99.90
59148;DHT22;44930;52.878;6.168;2023-04-07T15:48:11;11.40;99.90
59148;DHT22;44930;52.878;6.168;2023-04-07T15:50:37;11.40;99.90
59148;DHT22;44930;52.878;6.168;2023-04-07T15:53:03;11.20;99.90
59148;DHT22;44930;52.878;6.168;2023-04-07T15:55:32;11.40;99.90
59148;DHT22;44930;52.878;6.168;2023-04-07T15:57:59;11.40;99.90
59148;DHT22;44930;52.878;6.168;2023-04-07T16:00:28;11.20;99.90
59148;DHT22;44930;52.878;6.168;2023-04-07T16:02:54;11.40;99.90
59148;DHT22;44930;52.878;6.168;2023-04-07T16:05:20;11.40;99.90
59148;DHT22;44930;52.878;6.168;2023-04-07T16:07:46;11.70;99.90
59148;DHT22;44930;52.878;6.168;2023-04-07T16:10:12;11.40;99.90
59148;DHT22;44930;52.878;6.168;2023-04-07T16:12:38;11.60;99.90
59148;DHT22;44930;52.878;6.168;2023-04-07T16:15:06;11.50;99.90
59148;DHT22;44930;52.878;6.168;2023-04-07T16:17:32;11.40;99.90
59148;DHT22;44930;52.878;6.168;2023-04-07T16:19:58;11.60;99.90
59148;DHT22;44930;52.878;6.168;2023-04-07T16:22:23;11.60;99.90
59148;DHT22;44930;52.878;6.168;2023-04-07T16:24:49;11.90;99.90
59148;DHT22;44930;52.878;6.168;2023-04-07T16:27:15;11.60;99.90
59148;DHT22;44930;52.878;6.168;2023-04-07T16:29:40;11.90;99.90
59148;DHT22;44930;52.878;6.168;2023-04-07T16:32:06;11.70;99.90
59148;DHT22;44930;52.878;6.168;2023-04-07T16:34:31;11.80;99.90
59148;DHT22;44930;52.878;6.168;2023-04-07T16:36:57;11.90;99.90
59148;DHT22;44930;52.878;6.168;2023-04-07T16:39:22;11.70;99.90
59148;DHT22;44930;52.878;6.168;2023-04-07T16:41:48;12.00;99.90
59148;DHT22;44930;52.878;6.168;2023-04-07T16:44:13;11.80;99.90
59148;DHT22;44930;52.878;6.168;2023-04-07T16:46:39;11.60;99.90
59148;DHT22;44930;52.878;6.168;2023-04-07T16:49:05;12.00;99.90
59148;DHT22;44930;52.878;6.168;2023-04-07T16:51:31;11.70;99.90
59148;DHT22;44930;52.878;6.168;2023-04-07T16:53:56;11.60;99.90
59148;DHT22;44930;52.878;6.168;2023-04-07T16:56:23;11.70;99.90